Newfield, Pennsylvania
Current Conditions -  °F | °C
As of 12:35 AM on Friday 28 Nov 2014 (Local Time) from KN38 Reporting Station
Overcast Overcast  
Wind Chill: 17°   Ceiling: 3500
Heat Index: 27°   Visibility: 10mi
Dew Point: 21°   Wind: 9mph
Humidity: 80%   Direction: 270°W
Pressure: 30.02"   Gusts: NA
Location:  41.8283°N, 77.7331°W
Report Text: KN38 280535Z AUTO 27008KT 10SM BKN035 OVC110 M03/M06 A3002 RMK AO2
Loading
Personal Weather Stations






























Interactive Weather Map New forecast layout! Learn more

10-Day Weather Forecast

Advertisements
Track Severe Weather on mobile